Alvarado, Minnesota
Current Conditions -  °F | °C
As of 7:53 AM on Thursday 30 Oct 2014 (Local Time) from KGFK Reporting Station
Broken Clouds Broken Clouds  
Wind Chill: 20°   Ceiling: 12000
Heat Index: 29°   Visibility: 10mi
Dew Point: 27°   Wind: 10mph
Humidity: 92%   Direction: 340°NNW
Pressure: 30.16"   Gusts: NA
Location:  48.19°N, 97°W
Report Text: KGFK 301253Z 34009KT 10SM BKN120 M02/M03 A3016 RMK AO2 SLP226 T10171028
Loading
Personal Weather Stations






























Interactive Weather Map
Tropical Storm Tracking
New forecast layout! Learn more

10-Day Weather Forecast

Advertisements
Track Severe Weather on mobile